Acadia Valley, Canada
Current Conditions -  °F | °C
As of 3:00 AM on Friday 31 Oct 2014 (Local Time) from CYKY Reporting Station
Overcast Overcast  
Wind Chill: 22°   Ceiling: 800
Heat Index: 34°   Visibility: 15mi
Dew Point: 30°   Wind: 23mph
Humidity: 87%   Direction: 150°SSE
Pressure: 30"   Gusts: 29mph
Location:  51.15°N, 110.2°W
Report Text: CYKY 310900Z 15020G25KT 15SM OVC008 01/M01 A3000 RMK SC8 SLP187
Loading
Personal Weather Stations






























Interactive Weather Map New forecast layout! Learn more

10-Day Weather Forecast

Advertisements
Track Severe Weather on mobile